createdAt,value
2018-04-29T00:00:53.988Z,59.52
2018-04-29T00:03:21.553Z,59.69
2018-04-29T00:05:49.120Z,59.76
2018-04-29T00:08:16.605Z,59.89
2018-04-29T00:10:44.119Z,59.88
2018-04-29T00:13:11.583Z,60.22
2018-04-29T00:15:39.048Z,60.19
2018-04-29T00:18:06.691Z,60.18
2018-04-29T00:20:34.545Z,60.58
2018-04-29T00:23:12.438Z,60.56
2018-04-29T00:25:40.466Z,60.79
2018-04-29T00:28:08.090Z,60.68
2018-04-29T00:30:36.558Z,60.51
2018-04-29T00:33:04.160Z,60.65
2018-04-29T00:35:31.612Z,60.71
2018-04-29T00:37:59.061Z,60.63
2018-04-29T00:40:27.543Z,60.92
2018-04-29T00:43:00.111Z,61.17
2018-04-29T00:45:27.569Z,60.69
2018-04-29T00:47:55.075Z,60.46
2018-04-29T00:50:22.618Z,60.54
2018-04-29T00:52:50.135Z,60.09
2018-04-29T00:55:17.609Z,60.14
2018-04-29T00:57:45.139Z,60.46
2018-04-29T01:00:12.698Z,60.60
2018-04-29T01:02:40.158Z,61.16
2018-04-29T01:05:07.631Z,60.76
2018-04-29T01:07:35.106Z,61.21
2018-04-29T01:10:02.553Z,62.16
2018-04-29T01:12:30.100Z,62.23
2018-04-29T01:14:57.566Z,62.08
2018-04-29T01:17:25.056Z,61.88
2018-04-29T01:19:52.502Z,61.99
2018-04-29T01:22:20.234Z,61.97
2018-04-29T01:24:47.738Z,62.18
2018-04-29T01:27:15.169Z,62.16
2018-04-29T01:29:42.647Z,62.37
2018-04-29T01:32:10.096Z,62.88
2018-04-29T01:34:37.538Z,62.42
2018-04-29T01:37:05.001Z,62.25
2018-04-29T01:39:32.442Z,62.74
2018-04-29T01:41:59.944Z,62.47
2018-04-29T01:44:27.671Z,62.29
2018-04-29T01:46:55.131Z,62.34
2018-04-29T01:49:22.612Z,62.61
2018-04-29T01:51:50.069Z,62.83
2018-04-29T01:54:17.513Z,62.47
2018-04-29T01:56:44.970Z,62.39
2018-04-29T01:59:12.464Z,62.39
2018-04-29T02:01:39.966Z,62.30
2018-04-29T02:04:07.425Z,62.15
2018-04-29T02:06:34.870Z,62.62
2018-04-29T02:09:02.353Z,63.26
2018-04-29T02:11:29.816Z,63.55
2018-04-29T02:13:57.298Z,63.92
2018-04-29T02:16:24.772Z,64.30
2018-04-29T02:18:52.318Z,64.90
2018-04-29T02:21:19.921Z,64.99
2018-04-29T02:23:47.340Z,64.99
2018-04-29T02:26:14.799Z,64.75
2018-04-29T02:28:42.294Z,64.79
2018-04-29T02:31:09.745Z,64.82
2018-04-29T02:33:37.205Z,64.54
2018-04-29T02:36:04.659Z,64.52
2018-04-29T02:38:32.100Z,64.70
2018-04-29T02:40:59.551Z,64.71
2018-04-29T02:43:27.003Z,64.66
2018-04-29T02:45:54.447Z,64.66
2018-04-29T02:48:21.974Z,64.51
2018-04-29T02:50:49.485Z,64.62
2018-04-29T02:53:17.317Z,64.01
2018-04-29T02:55:45.024Z,64.29
2018-04-29T02:58:12.681Z,64.59
2018-04-29T03:00:40.176Z,65.06
2018-04-29T03:03:07.714Z,65.25
2018-04-29T03:05:35.247Z,65.21
2018-04-29T03:08:02.735Z,65.05
2018-04-29T03:10:30.191Z,64.56
2018-04-29T03:12:57.681Z,64.77
2018-04-29T03:15:25.260Z,64.93
2018-04-29T03:17:52.715Z,65.33
2018-04-29T03:20:20.236Z,65.25
2018-04-29T03:22:47.820Z,65.50
2018-04-29T03:25:15.263Z,65.64
2018-04-29T03:27:42.793Z,65.25
2018-04-29T03:30:10.235Z,64.97
2018-04-29T03:32:37.712Z,64.94
2018-04-29T03:35:05.536Z,64.71
2018-04-29T03:37:33.042Z,64.84
2018-04-29T03:40:00.493Z,65.09
2018-04-29T03:42:28.008Z,65.68
2018-04-29T03:44:55.746Z,66.17
2018-04-29T03:47:23.340Z,66.38
2018-04-29T03:49:50.914Z,66.23
2018-04-29T03:52:18.594Z,66.39
2018-04-29T03:54:46.062Z,66.65
2018-04-29T03:57:25.596Z,66.92
2018-04-29T04:00:05.572Z,67.22
2018-04-29T04:02:45.018Z,67.28
2018-04-29T04:05:12.454Z,67.27
2018-04-29T04:07:39.950Z,67.31
2018-04-29T04:10:07.486Z,67.15
2018-04-29T04:12:35.208Z,66.94
2018-04-29T04:15:02.676Z,66.50
2018-04-29T04:17:30.405Z,66.44
2018-04-29T04:19:58.594Z,66.37
2018-04-29T04:22:26.049Z,66.02
2018-04-29T04:24:53.720Z,65.78
2018-04-29T04:27:21.174Z,65.99
2018-04-29T04:29:48.736Z,65.62
2018-04-29T04:32:17.146Z,65.78
2018-04-29T04:34:44.880Z,65.43
2018-04-29T04:37:12.372Z,65.78
2018-04-29T04:39:39.930Z,65.73
2018-04-29T04:42:07.493Z,65.83
2018-04-29T04:44:35.004Z,65.79
2018-04-29T04:47:02.457Z,65.67
2018-04-29T04:49:29.921Z,65.92
2018-04-29T04:54:55.061Z,65.26
2018-04-29T04:57:22.776Z,65.16
2018-04-29T04:59:50.249Z,65.55
2018-04-29T05:02:17.796Z,65.75
2018-04-29T05:04:45.887Z,65.46
2018-04-29T05:07:13.464Z,65.97
2018-04-29T05:09:40.905Z,66.35
2018-04-29T05:12:08.461Z,66.52
2018-04-29T05:14:36.354Z,66.37
2018-04-29T05:17:04.253Z,66.48
2018-04-29T05:19:32.499Z,66.72
2018-04-29T05:22:00.131Z,66.70
2018-04-29T05:24:27.579Z,66.61
2018-04-29T05:26:55.038Z,66.65
2018-04-29T05:29:23.017Z,66.52
2018-04-29T05:31:51.358Z,66.44
2018-04-29T05:34:18.931Z,65.91
2018-04-29T05:36:46.520Z,65.47
2018-04-29T05:39:14.154Z,64.85
2018-04-29T05:41:41.832Z,63.24
2018-04-29T05:44:09.586Z,62.88
2018-04-29T05:46:37.192Z,62.69
2018-04-29T05:49:04.879Z,61.69
2018-04-29T05:54:25.494Z,61.17
2018-04-29T05:56:52.955Z,62.16
2018-04-29T05:59:20.423Z,62.87
2018-04-29T06:01:49.298Z,63.08
2018-04-29T06:04:17.023Z,63.85
2018-04-29T06:06:44.782Z,64.01
2018-04-29T06:09:12.176Z,64.02
2018-04-29T06:11:39.699Z,63.89
2018-04-29T06:14:07.274Z,63.79
2018-04-29T06:16:34.776Z,63.86
2018-04-29T06:19:02.451Z,64.21
2018-04-29T06:21:29.949Z,64.43
2018-04-29T06:23:58.336Z,63.20
2018-04-29T06:26:25.855Z,63.12
2018-04-29T06:28:53.330Z,63.38
2018-04-29T06:31:21.490Z,63.34
2018-04-29T06:33:48.945Z,63.20
2018-04-29T06:36:16.418Z,63.79
2018-04-29T06:38:43.994Z,63.70
2018-04-29T06:41:11.573Z,62.90
2018-04-29T06:43:39.037Z,62.41
2018-04-29T06:46:07.260Z,61.97
2018-04-29T06:48:34.706Z,61.85
2018-04-29T06:51:02.189Z,62.37
2018-04-29T06:53:29.903Z,63.17
2018-04-29T06:55:57.320Z,62.65
2018-04-29T06:58:24.785Z,62.60
2018-04-29T07:00:52.496Z,63.29
2018-04-29T07:03:20.291Z,63.93
2018-04-29T07:05:47.830Z,64.57
2018-04-29T07:08:15.296Z,64.48
2018-04-29T07:10:42.783Z,64.41
2018-04-29T07:13:10.263Z,64.58
2018-04-29T07:15:37.726Z,64.71
2018-04-29T07:18:05.491Z,64.94
2018-04-29T07:20:33.118Z,64.16
2018-04-29T07:23:00.565Z,63.93
2018-04-29T07:25:28.146Z,63.49
2018-04-29T07:27:55.590Z,63.22
2018-04-29T07:30:23.137Z,63.07
2018-04-29T07:32:50.953Z,62.67
2018-04-29T07:35:18.417Z,62.25
2018-04-29T07:37:45.985Z,61.94
2018-04-29T07:40:13.785Z,60.37
2018-04-29T07:42:46.205Z,59.72
2018-04-29T07:45:13.900Z,59.34
2018-04-29T07:47:41.400Z,59.66
2018-04-29T07:50:09.509Z,59.57
2018-04-29T07:52:37.146Z,59.16
2018-04-29T07:55:04.642Z,58.78
2018-04-29T07:57:32.161Z,58.65
2018-04-29T07:59:59.675Z,58.42
2018-04-29T08:02:27.239Z,58.46
2018-04-29T08:04:54.707Z,57.81
2018-04-29T08:07:22.175Z,57.64
2018-04-29T08:09:50.694Z,57.08
2018-04-29T08:12:28.905Z,55.87
2018-04-29T08:14:56.413Z,55.99
2018-04-29T08:17:24.801Z,55.11
2018-04-29T08:19:52.301Z,53.75
2018-04-29T08:22:19.869Z,53.66
2018-04-29T08:24:47.419Z,54.23
2018-04-29T08:27:15.693Z,54.56
2018-04-29T08:29:43.177Z,54.10
2018-04-29T08:32:15.626Z,53.53
2018-04-29T08:34:43.103Z,53.18
2018-04-29T08:37:10.659Z,52.88
2018-04-29T08:39:38.207Z,51.47
2018-04-29T08:42:10.752Z,50.53
2018-04-29T08:44:38.259Z,49.75
2018-04-29T08:47:05.751Z,48.76
2018-04-29T08:49:33.430Z,48.84
2018-04-29T08:52:01.462Z,48.47
2018-04-29T08:54:29.137Z,47.66
2018-04-29T08:56:56.641Z,48.83
2018-04-29T08:59:24.264Z,48.64
2018-04-29T09:01:51.993Z,48.84
2018-04-29T09:04:20.349Z,48.58
2018-04-29T09:06:47.957Z,48.04
2018-04-29T09:09:15.836Z,48.53
2018-04-29T09:11:48.343Z,49.04
2018-04-29T09:14:15.887Z,49.04
2018-04-29T09:16:43.609Z,48.82
2018-04-29T09:19:11.363Z,48.37
2018-04-29T09:21:39.006Z,48.87
2018-04-29T09:24:08.513Z,48.49
2018-04-29T09:26:37.126Z,49.64
2018-04-29T09:29:04.740Z,48.96
2018-04-29T09:31:35.406Z,48.92
2018-04-29T09:34:02.872Z,49.42
2018-04-29T09:36:30.409Z,49.18
2018-04-29T09:38:58.563Z,48.75
2018-04-29T09:41:26.193Z,49.36
2018-04-29T09:43:53.623Z,49.57
2018-04-29T09:46:21.131Z,48.33
2018-04-29T09:48:48.656Z,47.21
2018-04-29T09:51:17.703Z,46.93
2018-04-29T09:53:45.275Z,47.04
2018-04-29T09:56:12.806Z,47.14
2018-04-29T09:58:40.294Z,47.02
2018-04-29T10:01:13.265Z,44.49
2018-04-29T10:03:40.735Z,43.77
2018-04-29T10:06:08.210Z,43.69
2018-04-29T10:08:35.688Z,42.98
2018-04-29T10:11:03.212Z,42.79
2018-04-29T10:13:30.666Z,42.53
2018-04-29T10:15:58.161Z,42.27
2018-04-29T10:18:25.640Z,41.76
2018-04-29T10:20:53.215Z,41.32
2018-04-29T10:23:20.708Z,40.64
2018-04-29T10:25:48.598Z,39.56
2018-04-29T10:28:16.040Z,39.30
2018-04-29T10:30:43.632Z,39.70
2018-04-29T10:33:11.095Z,40.41
2018-04-29T10:35:38.557Z,38.30
2018-04-29T10:38:09.658Z,38.11
2018-04-29T10:40:37.176Z,37.93
2018-04-29T10:43:04.706Z,38.21
2018-04-29T10:45:32.222Z,38.52
2018-04-29T10:47:59.698Z,37.80
2018-04-29T10:50:27.888Z,36.60
2018-04-29T10:52:55.324Z,37.19
2018-04-29T10:55:22.780Z,36.66
2018-04-29T10:57:50.245Z,36.53
2018-04-29T11:00:17.695Z,36.19
2018-04-29T11:02:45.166Z,36.38
2018-04-29T11:05:12.602Z,35.50
2018-04-29T11:07:40.091Z,35.66
2018-04-29T11:10:07.601Z,35.21
2018-04-29T11:12:35.070Z,35.07
2018-04-29T11:15:02.518Z,34.55
2018-04-29T11:17:29.950Z,33.05
2018-04-29T11:19:57.390Z,33.00
2018-04-29T11:22:24.882Z,32.95
2018-04-29T11:24:53.982Z,32.80
2018-04-29T11:27:21.420Z,32.90
2018-04-29T11:29:48.930Z,32.25
2018-04-29T11:32:16.333Z,31.81
2018-04-29T11:34:43.842Z,31.82
2018-04-29T11:37:12.190Z,31.94
2018-04-29T11:39:39.629Z,32.08
2018-04-29T11:42:07.089Z,31.59
2018-04-29T11:44:34.566Z,31.35
2018-04-29T11:47:02.089Z,31.26
2018-04-29T11:49:29.529Z,30.99
2018-04-29T11:51:56.532Z,31.28
2018-04-29T11:54:23.703Z,30.93
2018-04-29T11:56:50.727Z,30.75
2018-04-29T11:59:17.721Z,31.14
2018-04-29T12:01:50.273Z,30.98
2018-04-29T12:04:17.685Z,30.00
2018-04-29T12:06:45.253Z,30.14
2018-04-29T12:09:12.740Z,30.43
2018-04-29T12:11:40.255Z,30.56
2018-04-29T12:14:07.704Z,30.57
2018-04-29T12:16:35.279Z,31.08
2018-04-29T12:19:02.731Z,30.40
2018-04-29T12:21:30.219Z,30.63
2018-04-29T12:23:57.789Z,30.89
2018-04-29T12:26:25.296Z,31.87
2018-04-29T12:28:52.746Z,31.22
2018-04-29T12:31:20.173Z,31.71
2018-04-29T12:33:47.615Z,31.00
2018-04-29T12:36:15.062Z,31.07
2018-04-29T12:38:42.554Z,30.37
2018-04-29T12:41:10.219Z,30.31
2018-04-29T12:43:37.755Z,30.59
2018-04-29T12:46:05.310Z,30.22
2018-04-29T12:48:32.768Z,30.34
2018-04-29T12:51:00.226Z,29.46
2018-04-29T12:53:28.489Z,28.68
2018-04-29T12:55:56.107Z,27.81
2018-04-29T12:58:23.540Z,28.61
2018-04-29T13:00:50.997Z,28.47
2018-04-29T13:03:23.537Z,29.30
2018-04-29T13:05:51.063Z,28.74
2018-04-29T13:08:18.851Z,29.22
2018-04-29T13:10:46.346Z,28.37
2018-04-29T13:13:18.973Z,27.91
2018-04-29T13:15:46.591Z,28.36
2018-04-29T13:18:14.055Z,29.09
2018-04-29T13:20:41.839Z,28.91
2018-04-29T13:23:09.430Z,28.57
2018-04-29T13:25:37.505Z,28.83
2018-04-29T13:28:05.709Z,29.41
2018-04-29T13:30:33.187Z,29.91
2018-04-29T13:33:00.744Z,29.36
2018-04-29T13:35:28.964Z,29.47
2018-04-29T13:37:56.450Z,28.61
2018-04-29T13:40:23.925Z,29.56
2018-04-29T13:42:51.390Z,28.51
2018-04-29T13:45:18.875Z,28.81
2018-04-29T13:47:46.328Z,29.11
2018-04-29T13:50:13.766Z,28.76
2018-04-29T13:52:55.471Z,29.50
2018-04-29T13:55:22.936Z,29.75
2018-04-29T13:57:50.460Z,29.80
2018-04-29T14:00:17.920Z,29.96
2018-04-29T14:05:38.626Z,30.19
2018-04-29T14:08:06.073Z,29.90
2018-04-29T14:10:33.564Z,29.87
2018-04-29T14:13:01.082Z,31.22
2018-04-29T14:15:28.482Z,30.54
2018-04-29T14:17:56.009Z,30.47
2018-04-29T14:20:23.522Z,30.44
2018-04-29T14:22:56.040Z,30.78
2018-04-29T14:25:23.552Z,31.23
2018-04-29T14:27:51.192Z,31.47
2018-04-29T14:30:18.632Z,31.42
2018-04-29T14:32:49.127Z,31.99
2018-04-29T14:35:16.843Z,31.76
2018-04-29T14:37:45.251Z,31.96
2018-04-29T14:40:12.764Z,32.03
2018-04-29T14:42:40.313Z,31.72
2018-04-29T14:45:07.792Z,32.15
2018-04-29T14:47:35.263Z,32.31
2018-04-29T14:50:02.740Z,32.49
2018-04-29T14:52:30.186Z,32.82
2018-04-29T14:54:57.655Z,32.46
2018-04-29T14:57:25.133Z,32.86
2018-04-29T14:59:52.601Z,33.32
2018-04-29T15:02:20.141Z,33.86
2018-04-29T15:04:47.566Z,34.57
2018-04-29T15:07:15.017Z,34.80
2018-04-29T15:09:42.452Z,34.78
2018-04-29T15:12:09.948Z,34.99
2018-04-29T15:14:37.403Z,35.46
2018-04-29T15:17:04.851Z,35.42
2018-04-29T15:19:43.957Z,36.07
2018-04-29T15:22:11.464Z,35.99
2018-04-29T15:24:38.973Z,36.40
2018-04-29T15:27:06.500Z,36.72
2018-04-29T15:29:34.024Z,36.87
2018-04-29T15:32:01.462Z,36.87
2018-04-29T15:34:29.044Z,36.78
2018-04-29T15:36:56.493Z,37.42
2018-04-29T15:39:23.952Z,37.80
2018-04-29T15:41:51.470Z,37.42
2018-04-29T15:44:18.978Z,37.41
2018-04-29T15:46:48.126Z,37.81
2018-04-29T15:49:15.657Z,37.65
2018-04-29T15:51:43.804Z,37.84
2018-04-29T15:54:12.748Z,37.91
2018-04-29T15:56:40.251Z,38.11
2018-04-29T15:59:07.705Z,38.10
2018-04-29T16:01:35.256Z,38.54
2018-04-29T16:04:02.755Z,38.72
2018-04-29T16:06:30.250Z,38.48
2018-04-29T16:08:58.362Z,38.75
2018-04-29T16:11:25.871Z,38.79
2018-04-29T16:13:53.414Z,38.88
2018-04-29T16:16:21.015Z,38.96
2018-04-29T16:18:48.531Z,39.30
2018-04-29T16:21:16.123Z,39.02
2018-04-29T16:23:43.563Z,39.13
2018-04-29T16:26:11.047Z,39.22
2018-04-29T16:28:38.505Z,39.21
2018-04-29T16:31:07.045Z,39.42
2018-04-29T16:33:34.494Z,39.70
2018-04-29T16:36:02.037Z,39.67
2018-04-29T16:38:29.961Z,39.80
2018-04-29T16:40:59.669Z,39.79
2018-04-29T16:43:37.825Z,39.97
2018-04-29T16:46:05.277Z,40.04
2018-04-29T16:48:32.739Z,40.34
2018-04-29T16:51:00.708Z,40.54
2018-04-29T16:53:42.495Z,40.68
2018-04-29T16:56:09.977Z,41.11
2018-04-29T16:58:37.933Z,41.55
2018-04-29T17:01:05.439Z,41.73
2018-04-29T17:03:33.028Z,42.17
2018-04-29T17:06:00.499Z,42.11
2018-04-29T17:08:28.012Z,42.46
2018-04-29T17:10:55.566Z,42.55
2018-04-29T17:13:42.327Z,42.89
2018-04-29T17:16:09.833Z,43.20
2018-04-29T17:18:37.673Z,43.48
2018-04-29T17:21:05.199Z,43.70
2018-04-29T17:23:32.689Z,43.73
2018-04-29T17:26:00.437Z,43.89
2018-04-29T17:28:28.203Z,43.92
2018-04-29T17:30:55.787Z,43.96
2018-04-29T17:33:24.468Z,44.22
2018-04-29T17:35:51.953Z,44.60
2018-04-29T17:38:19.422Z,44.56
2018-04-29T17:40:46.896Z,44.83
2018-04-29T17:43:14.405Z,44.90
2018-04-29T17:45:41.959Z,45.02
2018-04-29T17:48:10.574Z,45.17
2018-04-29T17:50:38.031Z,45.22
2018-04-29T17:53:05.825Z,45.46
2018-04-29T17:55:33.442Z,45.55
2018-04-29T17:58:01.122Z,45.98
2018-04-29T18:00:29.413Z,46.08
2018-04-29T18:02:58.719Z,46.11
2018-04-29T18:05:26.399Z,46.24
2018-04-29T18:07:53.950Z,46.33
2018-04-29T18:10:21.525Z,46.69
2018-04-29T18:12:50.951Z,46.98
2018-04-29T18:15:18.442Z,47.24
2018-04-29T18:17:45.945Z,47.39
2018-04-29T18:20:14.011Z,47.40
2018-04-29T18:22:41.583Z,47.56
2018-04-29T18:25:09.408Z,47.45
2018-04-29T18:27:38.103Z,47.67
2018-04-29T18:30:07.505Z,47.94
2018-04-29T18:32:35.244Z,47.92
2018-04-29T18:35:02.976Z,48.10
2018-04-29T18:37:30.497Z,48.29
2018-04-29T18:40:01.147Z,48.22
2018-04-29T18:42:52.347Z,48.53
2018-04-29T18:45:19.843Z,48.46
2018-04-29T18:47:47.460Z,48.64
2018-04-29T18:50:14.999Z,48.51
2018-04-29T18:52:42.456Z,48.82
2018-04-29T18:55:09.959Z,48.84
2018-04-29T18:57:37.559Z,48.86
2018-04-29T19:00:05.330Z,48.79
2018-04-29T19:02:32.899Z,48.61
2018-04-29T19:05:00.430Z,48.52
2018-04-29T19:07:27.990Z,48.47
2018-04-29T19:09:55.685Z,48.18
2018-04-29T19:12:23.222Z,48.12
2018-04-29T19:14:50.796Z,48.24
2018-04-29T19:17:18.262Z,48.12
2018-04-29T19:19:45.766Z,48.23
2018-04-29T19:22:13.228Z,48.00
2018-04-29T19:24:40.706Z,48.06
2018-04-29T19:27:08.451Z,48.03
2018-04-29T19:29:36.907Z,48.18
2018-04-29T19:32:04.410Z,48.12
2018-04-29T19:34:32.040Z,48.24
2018-04-29T19:36:59.558Z,48.38
2018-04-29T19:39:27.094Z,48.52
2018-04-29T19:41:54.557Z,48.40
2018-04-29T19:44:22.047Z,48.68
2018-04-29T19:46:49.623Z,48.72
2018-04-29T19:49:17.170Z,48.74
2018-04-29T19:51:44.730Z,48.95
2018-04-29T19:54:12.312Z,49.02
2018-04-29T19:56:39.975Z,49.07
2018-04-29T19:59:09.046Z,49.33
2018-04-29T20:01:36.713Z,49.50
2018-04-29T20:04:04.215Z,49.78
2018-04-29T20:06:31.753Z,49.80
2018-04-29T20:08:59.997Z,50.04
2018-04-29T20:11:27.612Z,49.98
2018-04-29T20:13:55.117Z,50.24
2018-04-29T20:16:23.111Z,50.17
2018-04-29T20:18:50.574Z,50.27
2018-04-29T20:21:18.083Z,50.47
2018-04-29T20:23:45.614Z,50.66
2018-04-29T20:26:13.077Z,50.54
2018-04-29T20:28:40.619Z,50.54
2018-04-29T20:31:08.167Z,50.55
2018-04-29T20:33:36.117Z,50.69
2018-04-29T20:36:04.391Z,50.89
2018-04-29T20:38:31.960Z,51.08
2018-04-29T20:40:59.457Z,51.31
2018-04-29T20:43:36.944Z,51.38
2018-04-29T20:46:05.224Z,51.52
2018-04-29T20:48:32.749Z,51.65
2018-04-29T20:51:00.167Z,51.75
2018-04-29T20:53:37.445Z,51.78
2018-04-29T20:56:04.951Z,51.85
2018-04-29T20:58:32.443Z,51.97
2018-04-29T21:00:59.925Z,52.13
2018-04-29T21:03:27.718Z,51.92
2018-04-29T21:05:55.256Z,51.91
2018-04-29T21:08:22.755Z,51.96
2018-04-29T21:10:50.272Z,51.92
2018-04-29T21:13:18.500Z,51.91
2018-04-29T21:15:45.971Z,52.13
2018-04-29T21:18:13.422Z,52.12
2018-04-29T21:20:40.941Z,52.16
2018-04-29T21:23:08.390Z,52.28
2018-04-29T21:25:35.852Z,52.42
2018-04-29T21:28:03.383Z,52.59
2018-04-29T21:33:10.623Z,52.71
2018-04-29T21:35:38.320Z,52.87
2018-04-29T21:38:05.831Z,52.79
2018-04-29T21:40:33.328Z,52.74
2018-04-29T21:43:00.829Z,52.75
2018-04-29T21:45:28.366Z,52.82
2018-04-29T21:47:55.829Z,52.80
2018-04-29T21:50:23.370Z,52.82
2018-04-29T21:52:50.894Z,52.98
2018-04-29T21:55:18.378Z,53.13
2018-04-29T21:57:46.165Z,53.37
2018-04-29T22:00:13.617Z,53.32
2018-04-29T22:02:41.213Z,53.54
2018-04-29T22:05:08.798Z,53.59
2018-04-29T22:07:36.251Z,53.62
2018-04-29T22:10:03.750Z,53.76
2018-04-29T22:12:31.276Z,53.89
2018-04-29T22:14:58.994Z,54.04
2018-04-29T22:17:26.452Z,54.19
2018-04-29T22:19:54.002Z,54.41
2018-04-29T22:22:21.535Z,54.57
2018-04-29T22:24:49.828Z,54.68
2018-04-29T22:27:17.388Z,54.88
2018-04-29T22:29:45.836Z,55.24
2018-04-29T22:32:13.398Z,55.39
2018-04-29T22:34:48.848Z,55.61
2018-04-29T22:37:16.411Z,55.91
2018-04-29T22:39:43.806Z,56.10
2018-04-29T22:42:26.282Z,56.26
2018-04-29T22:44:53.894Z,56.34
2018-04-29T22:47:21.402Z,56.46
2018-04-29T22:49:48.911Z,56.69
2018-04-29T22:52:16.436Z,56.76
2018-04-29T22:54:43.972Z,56.95
2018-04-29T22:57:12.308Z,57.19
2018-04-29T22:59:40.526Z,57.19
2018-04-29T23:02:08.308Z,57.31
2018-04-29T23:04:35.754Z,57.50
2018-04-29T23:07:04.753Z,57.73
2018-04-29T23:09:32.580Z,57.78
2018-04-29T23:12:00.067Z,57.73
2018-04-29T23:14:27.642Z,58.00
2018-04-29T23:16:55.373Z,58.33
2018-04-29T23:19:23.042Z,58.44
2018-04-29T23:21:51.458Z,58.77
2018-04-29T23:24:18.981Z,58.97
2018-04-29T23:26:49.276Z,59.22
2018-04-29T23:29:17.952Z,59.29
2018-04-29T23:31:45.476Z,59.60
2018-04-29T23:34:13.416Z,59.69
2018-04-29T23:36:40.951Z,59.60
2018-04-29T23:39:09.048Z,59.83
2018-04-29T23:41:37.292Z,59.92
2018-04-29T23:44:05.702Z,60.05
2018-04-29T23:46:33.915Z,60.30
2018-04-29T23:49:07.072Z,60.43
2018-04-29T23:51:38.380Z,60.46
2018-04-29T23:54:05.884Z,60.48
2018-04-29T23:56:33.363Z,60.60
2018-04-29T23:59:03.016Z,60.70
